Fort Bridger, Fort Bridger Airport (KFBR)

NameFort Bridger Airport
CityFort Bridger
CountryUnited States
ICAOKFBR
IATAFBR
Altitude2144 m
CoordinatesGoogle Map
Live Air TrafficLiveATC.net
METARKFBR 201002Z AUTO 33004KT 1/2SM FG OVC002 01/01 A2972 RMK AO2
2019-05-20 10:02:00 Wind: Northwest (330°) 2.06 m/s - Visibility: 3218.68 m - Weather: Fog - Temperature: 1 °C - Dew point: 1 °C - Humidity: 100% - Pressure: 1006.43 hPa
Statistics

The table below shows the detailed information of all flights to/from Fort Bridger, Fort Bridger Airport (KFBR).